sensor_id;sensor_type;location;lat;lon;timestamp;P1;durP1;ratioP1;P2;durP2;ratioP2
70487;SDS011;57976;48.174;16.370;2023-12-29T00:01:30;17.90;;;10.10;;
70487;SDS011;57976;48.174;16.370;2023-12-29T00:03:35;19.00;;;10.20;;
70487;SDS011;57976;48.174;16.370;2023-12-29T00:05:40;20.60;;;10.10;;
70487;SDS011;57976;48.174;16.370;2023-12-29T00:07:45;19.00;;;9.80;;
70487;SDS011;57976;48.174;16.370;2023-12-29T00:09:50;18.70;;;10.10;;
70487;SDS011;57976;48.174;16.370;2023-12-29T00:11:54;20.00;;;10.10;;
70487;SDS011;57976;48.174;16.370;2023-12-29T00:13:59;19.70;;;10.40;;
70487;SDS011;57976;48.174;16.370;2023-12-29T00:16:04;21.90;;;11.30;;
70487;SDS011;57976;48.174;16.370;2023-12-29T00:18:09;20.40;;;11.20;;
70487;SDS011;57976;48.174;16.370;2023-12-29T00:20:16;18.80;;;9.80;;
70487;SDS011;57976;48.174;16.370;2023-12-29T00:22:40;19.90;;;9.90;;
70487;SDS011;57976;48.174;16.370;2023-12-29T00:24:44;18.20;;;9.90;;
70487;SDS011;57976;48.174;16.370;2023-12-29T00:26:49;18.00;;;9.90;;
70487;SDS011;57976;48.174;16.370;2023-12-29T00:28:54;19.70;;;9.60;;
70487;SDS011;57976;48.174;16.370;2023-12-29T00:31:02;17.90;;;9.50;;
70487;SDS011;57976;48.174;16.370;2023-12-29T00:33:08;18.70;;;10.00;;
70487;SDS011;57976;48.174;16.370;2023-12-29T00:35:13;17.90;;;10.20;;
70487;SDS011;57976;48.174;16.370;2023-12-29T00:37:18;19.20;;;9.70;;
70487;SDS011;57976;48.174;16.370;2023-12-29T00:39:23;18.70;;;9.10;;
70487;SDS011;57976;48.174;16.370;2023-12-29T00:41:27;18.70;;;9.60;;
70487;SDS011;57976;48.174;16.370;2023-12-29T00:43:32;17.50;;;9.70;;
70487;SDS011;57976;48.174;16.370;2023-12-29T00:45:37;18.50;;;10.00;;
70487;SDS011;57976;48.174;16.370;2023-12-29T00:47:42;17.10;;;9.40;;
70487;SDS011;57976;48.174;16.370;2023-12-29T00:49:47;17.10;;;8.90;;
70487;SDS011;57976;48.174;16.370;2023-12-29T00:51:52;18.90;;;9.30;;
70487;SDS011;57976;48.174;16.370;2023-12-29T00:53:57;18.20;;;9.60;;
70487;SDS011;57976;48.174;16.370;2023-12-29T00:56:02;18.50;;;9.90;;
70487;SDS011;57976;48.174;16.370;2023-12-29T00:58:12;18.20;;;9.80;;
70487;SDS011;57976;48.174;16.370;2023-12-29T01:00:17;17.70;;;9.60;;
70487;SDS011;57976;48.174;16.370;2023-12-29T01:02:22;19.10;;;9.80;;
70487;SDS011;57976;48.174;16.370;2023-12-29T01:04:26;17.70;;;9.80;;
70487;SDS011;57976;48.174;16.370;2023-12-29T01:06:31;19.10;;;9.80;;
70487;SDS011;57976;48.174;16.370;2023-12-29T01:08:36;18.50;;;9.90;;
70487;SDS011;57976;48.174;16.370;2023-12-29T01:10:41;18.30;;;9.50;;
70487;SDS011;57976;48.174;16.370;2023-12-29T01:12:45;17.70;;;9.90;;
70487;SDS011;57976;48.174;16.370;2023-12-29T01:14:56;17.50;;;9.90;;
70487;SDS011;57976;48.174;16.370;2023-12-29T01:17:02;17.90;;;9.80;;
70487;SDS011;57976;48.174;16.370;2023-12-29T01:19:06;17.70;;;9.70;;
70487;SDS011;57976;48.174;16.370;2023-12-29T01:21:12;17.00;;;9.30;;
70487;SDS011;57976;48.174;16.370;2023-12-29T01:23:16;17.90;;;9.60;;
70487;SDS011;57976;48.174;16.370;2023-12-29T01:25:21;18.40;;;9.50;;
70487;SDS011;57976;48.174;16.370;2023-12-29T01:27:26;16.60;;;9.20;;
70487;SDS011;57976;48.174;16.370;2023-12-29T01:29:31;17.70;;;9.30;;
70487;SDS011;57976;48.174;16.370;2023-12-29T01:31:37;19.40;;;9.90;;
70487;SDS011;57976;48.174;16.370;2023-12-29T01:33:42;16.90;;;9.60;;
70487;SDS011;57976;48.174;16.370;2023-12-29T01:35:47;18.60;;;9.40;;
70487;SDS011;57976;48.174;16.370;2023-12-29T01:37:52;17.70;;;9.70;;
70487;SDS011;57976;48.174;16.370;2023-12-29T01:39:56;18.10;;;9.50;;
70487;SDS011;57976;48.174;16.370;2023-12-29T01:42:01;17.30;;;9.10;;
70487;SDS011;57976;48.174;16.370;2023-12-29T01:46:31;18.90;;;10.20;;
70487;SDS011;57976;48.174;16.370;2023-12-29T01:48:37;18.60;;;10.40;;
70487;SDS011;57976;48.174;16.370;2023-12-29T01:50:45;19.20;;;10.10;;
70487;SDS011;57976;48.174;16.370;2023-12-29T01:52:50;18.40;;;9.20;;
70487;SDS011;57976;48.174;16.370;2023-12-29T01:54:57;20.10;;;9.90;;
70487;SDS011;57976;48.174;16.370;2023-12-29T01:57:03;19.00;;;9.50;;
70487;SDS011;57976;48.174;16.370;2023-12-29T01:59:09;18.20;;;9.20;;
70487;SDS011;57976;48.174;16.370;2023-12-29T02:01:26;18.90;;;9.90;;
70487;SDS011;57976;48.174;16.370;2023-12-29T02:03:35;19.60;;;9.90;;
70487;SDS011;57976;48.174;16.370;2023-12-29T02:05:40;18.20;;;9.20;;
70487;SDS011;57976;48.174;16.370;2023-12-29T02:07:48;18.30;;;9.70;;
70487;SDS011;57976;48.174;16.370;2023-12-29T02:09:54;18.60;;;9.90;;
70487;SDS011;57976;48.174;16.370;2023-12-29T02:11:59;18.10;;;9.40;;
70487;SDS011;57976;48.174;16.370;2023-12-29T02:14:04;17.70;;;9.40;;
70487;SDS011;57976;48.174;16.370;2023-12-29T02:16:12;18.10;;;9.60;;
70487;SDS011;57976;48.174;16.370;2023-12-29T02:18:21;17.70;;;9.50;;
70487;SDS011;57976;48.174;16.370;2023-12-29T02:20:29;19.10;;;9.80;;
70487;SDS011;57976;48.174;16.370;2023-12-29T02:22:34;17.60;;;9.60;;
70487;SDS011;57976;48.174;16.370;2023-12-29T02:24:39;18.70;;;10.00;;
70487;SDS011;57976;48.174;16.370;2023-12-29T02:26:50;18.20;;;9.70;;
70487;SDS011;57976;48.174;16.370;2023-12-29T02:29:04;18.70;;;9.90;;
70487;SDS011;57976;48.174;16.370;2023-12-29T02:31:13;18.80;;;10.30;;
70487;SDS011;57976;48.174;16.370;2023-12-29T02:33:21;19.20;;;10.30;;
70487;SDS011;57976;48.174;16.370;2023-12-29T02:35:27;19.10;;;10.20;;
70487;SDS011;57976;48.174;16.370;2023-12-29T02:37:36;20.50;;;10.30;;
70487;SDS011;57976;48.174;16.370;2023-12-29T02:39:41;19.50;;;10.30;;
70487;SDS011;57976;48.174;16.370;2023-12-29T02:41:47;19.30;;;10.00;;
70487;SDS011;57976;48.174;16.370;2023-12-29T02:43:51;19.50;;;10.60;;
70487;SDS011;57976;48.174;16.370;2023-12-29T02:45:56;18.60;;;10.00;;
70487;SDS011;57976;48.174;16.370;2023-12-29T02:48:02;18.70;;;10.00;;
70487;SDS011;57976;48.174;16.370;2023-12-29T02:50:09;19.20;;;10.00;;
70487;SDS011;57976;48.174;16.370;2023-12-29T02:52:14;17.80;;;9.70;;
70487;SDS011;57976;48.174;16.370;2023-12-29T02:54:19;17.10;;;9.10;;
70487;SDS011;57976;48.174;16.370;2023-12-29T02:56:23;17.10;;;9.70;;
70487;SDS011;57976;48.174;16.370;2023-12-29T02:58:28;17.80;;;9.30;;
70487;SDS011;57976;48.174;16.370;2023-12-29T03:00:33;18.90;;;9.80;;
70487;SDS011;57976;48.174;16.370;2023-12-29T03:02:37;17.50;;;9.00;;
70487;SDS011;57976;48.174;16.370;2023-12-29T03:04:42;16.70;;;8.80;;
70487;SDS011;57976;48.174;16.370;2023-12-29T03:06:47;16.40;;;8.70;;
70487;SDS011;57976;48.174;16.370;2023-12-29T03:08:52;17.60;;;9.10;;
70487;SDS011;57976;48.174;16.370;2023-12-29T03:10:57;17.30;;;9.40;;
70487;SDS011;57976;48.174;16.370;2023-12-29T03:13:01;18.50;;;9.60;;
70487;SDS011;57976;48.174;16.370;2023-12-29T03:15:07;16.40;;;9.30;;
70487;SDS011;57976;48.174;16.370;2023-12-29T03:17:12;18.30;;;9.30;;
70487;SDS011;57976;48.174;16.370;2023-12-29T03:19:17;17.10;;;9.60;;
70487;SDS011;57976;48.174;16.370;2023-12-29T03:21:22;17.80;;;9.40;;
70487;SDS011;57976;48.174;16.370;2023-12-29T03:23:26;17.50;;;8.70;;
70487;SDS011;57976;48.174;16.370;2023-12-29T03:25:33;16.50;;;8.60;;
70487;SDS011;57976;48.174;16.370;2023-12-29T03:27:37;16.60;;;8.90;;
70487;SDS011;57976;48.174;16.370;2023-12-29T03:29:42;17.00;;;8.70;;
70487;SDS011;57976;48.174;16.370;2023-12-29T03:31:47;16.70;;;8.80;;
70487;SDS011;57976;48.174;16.370;2023-12-29T03:33:52;16.30;;;8.70;;
70487;SDS011;57976;48.174;16.370;2023-12-29T03:35:57;19.90;;;11.20;;
70487;SDS011;57976;48.174;16.370;2023-12-29T03:38:01;18.00;;;8.90;;
70487;SDS011;57976;48.174;16.370;2023-12-29T03:40:08;16.40;;;8.90;;
70487;SDS011;57976;48.174;16.370;2023-12-29T03:42:13;17.60;;;10.10;;
70487;SDS011;57976;48.174;16.370;2023-12-29T03:44:18;17.90;;;10.10;;
70487;SDS011;57976;48.174;16.370;2023-12-29T03:46:24;18.40;;;10.00;;
70487;SDS011;57976;48.174;16.370;2023-12-29T03:48:29;18.70;;;10.40;;
70487;SDS011;57976;48.174;16.370;2023-12-29T03:50:34;15.20;;;7.80;;
70487;SDS011;57976;48.174;16.370;2023-12-29T03:52:39;13.20;;;6.60;;
70487;SDS011;57976;48.174;16.370;2023-12-29T03:54:44;11.10;;;5.60;;
70487;SDS011;57976;48.174;16.370;2023-12-29T03:56:49;10.20;;;4.80;;
70487;SDS011;57976;48.174;16.370;2023-12-29T03:58:54;9.30;;;4.60;;
70487;SDS011;57976;48.174;16.370;2023-12-29T04:00:59;10.60;;;4.60;;
70487;SDS011;57976;48.174;16.370;2023-12-29T04:03:04;9.00;;;4.00;;
70487;SDS011;57976;48.174;16.370;2023-12-29T04:05:09;8.40;;;3.80;;
70487;SDS011;57976;48.174;16.370;2023-12-29T04:07:14;7.90;;;3.60;;
70487;SDS011;57976;48.174;16.370;2023-12-29T04:09:19;7.60;;;3.40;;
70487;SDS011;57976;48.174;16.370;2023-12-29T04:11:23;7.60;;;3.30;;
70487;SDS011;57976;48.174;16.370;2023-12-29T04:13:28;6.70;;;3.10;;
70487;SDS011;57976;48.174;16.370;2023-12-29T04:15:33;7.50;;;3.10;;
70487;SDS011;57976;48.174;16.370;2023-12-29T04:17:40;7.00;;;2.90;;
70487;SDS011;57976;48.174;16.370;2023-12-29T04:19:45;8.30;;;3.20;;
70487;SDS011;57976;48.174;16.370;2023-12-29T04:21:50;6.90;;;2.90;;
70487;SDS011;57976;48.174;16.370;2023-12-29T04:23:55;7.30;;;3.00;;
70487;SDS011;57976;48.174;16.370;2023-12-29T04:25:59;6.10;;;2.40;;
70487;SDS011;57976;48.174;16.370;2023-12-29T04:28:04;7.70;;;2.60;;
70487;SDS011;57976;48.174;16.370;2023-12-29T04:30:10;5.90;;;2.50;;
70487;SDS011;57976;48.174;16.370;2023-12-29T04:32:15;6.10;;;2.60;;
70487;SDS011;57976;48.174;16.370;2023-12-29T04:34:20;7.10;;;2.70;;
70487;SDS011;57976;48.174;16.370;2023-12-29T04:36:24;5.90;;;2.30;;
70487;SDS011;57976;48.174;16.370;2023-12-29T04:38:29;6.20;;;2.40;;
70487;SDS011;57976;48.174;16.370;2023-12-29T04:40:34;5.80;;;2.10;;
70487;SDS011;57976;48.174;16.370;2023-12-29T04:42:39;6.20;;;2.30;;
70487;SDS011;57976;48.174;16.370;2023-12-29T04:44:44;7.00;;;2.40;;
70487;SDS011;57976;48.174;16.370;2023-12-29T04:46:48;5.40;;;2.20;;
70487;SDS011;57976;48.174;16.370;2023-12-29T04:48:53;6.20;;;2.10;;
70487;SDS011;57976;48.174;16.370;2023-12-29T04:50:58;5.80;;;2.10;;
70487;SDS011;57976;48.174;16.370;2023-12-29T04:53:03;5.50;;;2.10;;
70487;SDS011;57976;48.174;16.370;2023-12-29T04:55:08;5.70;;;2.40;;
70487;SDS011;57976;48.174;16.370;2023-12-29T04:57:13;5.90;;;2.20;;
70487;SDS011;57976;48.174;16.370;2023-12-29T04:59:17;5.00;;;1.90;;
70487;SDS011;57976;48.174;16.370;2023-12-29T05:01:22;5.80;;;2.00;;
70487;SDS011;57976;48.174;16.370;2023-12-29T05:03:27;5.60;;;2.10;;
70487;SDS011;57976;48.174;16.370;2023-12-29T05:05:32;6.70;;;2.00;;
70487;SDS011;57976;48.174;16.370;2023-12-29T05:07:36;5.50;;;2.00;;
70487;SDS011;57976;48.174;16.370;2023-12-29T05:09:41;5.50;;;1.70;;
70487;SDS011;57976;48.174;16.370;2023-12-29T05:11:46;5.30;;;1.90;;
70487;SDS011;57976;48.174;16.370;2023-12-29T05:13:51;4.90;;;1.50;;
70487;SDS011;57976;48.174;16.370;2023-12-29T05:15:56;5.00;;;1.70;;
70487;SDS011;57976;48.174;16.370;2023-12-29T05:18:00;5.70;;;1.90;;
70487;SDS011;57976;48.174;16.370;2023-12-29T05:20:07;5.80;;;1.90;;
70487;SDS011;57976;48.174;16.370;2023-12-29T05:22:13;5.50;;;1.90;;
70487;SDS011;57976;48.174;16.370;2023-12-29T05:24:18;5.50;;;2.10;;
70487;SDS011;57976;48.174;16.370;2023-12-29T05:26:23;5.60;;;2.10;;
70487;SDS011;57976;48.174;16.370;2023-12-29T05:28:28;6.00;;;1.90;;
70487;SDS011;57976;48.174;16.370;2023-12-29T05:30:33;5.20;;;1.60;;
70487;SDS011;57976;48.174;16.370;2023-12-29T05:32:41;4.80;;;1.70;;
70487;SDS011;57976;48.174;16.370;2023-12-29T05:34:45;4.80;;;1.60;;
70487;SDS011;57976;48.174;16.370;2023-12-29T05:36:52;4.90;;;1.50;;
70487;SDS011;57976;48.174;16.370;2023-12-29T05:38:56;5.00;;;1.60;;
70487;SDS011;57976;48.174;16.370;2023-12-29T05:41:01;5.20;;;1.50;;
70487;SDS011;57976;48.174;16.370;2023-12-29T05:43:12;5.80;;;1.70;;
70487;SDS011;57976;48.174;16.370;2023-12-29T05:45:17;4.50;;;1.50;;
70487;SDS011;57976;48.174;16.370;2023-12-29T05:47:22;4.20;;;1.40;;
70487;SDS011;57976;48.174;16.370;2023-12-29T05:49:27;3.70;;;1.00;;
70487;SDS011;57976;48.174;16.370;2023-12-29T05:51:32;4.50;;;1.20;;
70487;SDS011;57976;48.174;16.370;2023-12-29T05:53:38;4.30;;;1.10;;
70487;SDS011;57976;48.174;16.370;2023-12-29T05:55:44;3.90;;;1.10;;
70487;SDS011;57976;48.174;16.370;2023-12-29T05:57:49;3.70;;;1.20;;
70487;SDS011;57976;48.174;16.370;2023-12-29T05:59:54;4.90;;;1.60;;
70487;SDS011;57976;48.174;16.370;2023-12-29T06:01:59;4.70;;;1.60;;
70487;SDS011;57976;48.174;16.370;2023-12-29T06:04:04;5.80;;;1.70;;
70487;SDS011;57976;48.174;16.370;2023-12-29T06:06:09;5.90;;;2.30;;
70487;SDS011;57976;48.174;16.370;2023-12-29T06:08:14;7.50;;;2.80;;
70487;SDS011;57976;48.174;16.370;2023-12-29T06:10:18;7.50;;;2.70;;
70487;SDS011;57976;48.174;16.370;2023-12-29T06:12:24;6.00;;;2.70;;
70487;SDS011;57976;48.174;16.370;2023-12-29T06:14:29;6.80;;;3.10;;
70487;SDS011;57976;48.174;16.370;2023-12-29T06:16:33;7.60;;;3.80;;
70487;SDS011;57976;48.174;16.370;2023-12-29T06:18:38;10.30;;;5.60;;
70487;SDS011;57976;48.174;16.370;2023-12-29T06:20:43;11.90;;;6.50;;
70487;SDS011;57976;48.174;16.370;2023-12-29T06:22:48;17.00;;;9.70;;
70487;SDS011;57976;48.174;16.370;2023-12-29T06:24:53;13.80;;;7.40;;
70487;SDS011;57976;48.174;16.370;2023-12-29T06:26:58;11.40;;;6.30;;
70487;SDS011;57976;48.174;16.370;2023-12-29T06:29:02;9.70;;;5.30;;
70487;SDS011;57976;48.174;16.370;2023-12-29T06:31:07;11.60;;;5.70;;
70487;SDS011;57976;48.174;16.370;2023-12-29T06:33:12;11.40;;;6.30;;
70487;SDS011;57976;48.174;16.370;2023-12-29T06:35:17;14.10;;;9.30;;
70487;SDS011;57976;48.174;16.370;2023-12-29T06:37:22;14.00;;;8.50;;
70487;SDS011;57976;48.174;16.370;2023-12-29T06:39:27;13.00;;;6.90;;
70487;SDS011;57976;48.174;16.370;2023-12-29T06:41:31;12.20;;;6.40;;
70487;SDS011;57976;48.174;16.370;2023-12-29T06:43:37;12.10;;;6.50;;
70487;SDS011;57976;48.174;16.370;2023-12-29T06:45:42;12.90;;;6.40;;
70487;SDS011;57976;48.174;16.370;2023-12-29T06:47:47;13.10;;;7.20;;
70487;SDS011;57976;48.174;16.370;2023-12-29T06:49:52;13.60;;;7.60;;
70487;SDS011;57976;48.174;16.370;2023-12-29T06:51:57;12.70;;;6.80;;
70487;SDS011;57976;48.174;16.370;2023-12-29T06:54:02;12.70;;;6.90;;
70487;SDS011;57976;48.174;16.370;2023-12-29T06:56:07;13.00;;;6.60;;
70487;SDS011;57976;48.174;16.370;2023-12-29T06:58:17;14.00;;;6.80;;
70487;SDS011;57976;48.174;16.370;2023-12-29T07:00:22;12.50;;;6.70;;
70487;SDS011;57976;48.174;16.370;2023-12-29T07:02:27;12.40;;;6.40;;
70487;SDS011;57976;48.174;16.370;2023-12-29T07:04:32;12.60;;;6.60;;
70487;SDS011;57976;48.174;16.370;2023-12-29T07:06:36;12.80;;;6.60;;
70487;SDS011;57976;48.174;16.370;2023-12-29T07:08:42;12.60;;;6.10;;
70487;SDS011;57976;48.174;16.370;2023-12-29T07:10:46;12.30;;;6.50;;
70487;SDS011;57976;48.174;16.370;2023-12-29T07:12:51;12.10;;;6.10;;
70487;SDS011;57976;48.174;16.370;2023-12-29T07:14:56;11.40;;;5.60;;
70487;SDS011;57976;48.174;16.370;2023-12-29T07:17:01;11.90;;;5.70;;
70487;SDS011;57976;48.174;16.370;2023-12-29T07:19:06;12.00;;;5.50;;
70487;SDS011;57976;48.174;16.370;2023-12-29T07:21:11;10.90;;;5.60;;
70487;SDS011;57976;48.174;16.370;2023-12-29T07:23:21;12.00;;;6.00;;
70487;SDS011;57976;48.174;16.370;2023-12-29T07:25:26;11.50;;;5.90;;
70487;SDS011;57976;48.174;16.370;2023-12-29T07:27:31;12.50;;;5.90;;
70487;SDS011;57976;48.174;16.370;2023-12-29T07:29:35;12.00;;;5.90;;
70487;SDS011;57976;48.174;16.370;2023-12-29T07:31:40;13.50;;;6.10;;
70487;SDS011;57976;48.174;16.370;2023-12-29T07:33:45;12.30;;;5.90;;
70487;SDS011;57976;48.174;16.370;2023-12-29T07:35:50;11.40;;;5.60;;
70487;SDS011;57976;48.174;16.370;2023-12-29T07:37:55;11.90;;;5.90;;
70487;SDS011;57976;48.174;16.370;2023-12-29T07:40:00;12.00;;;5.40;;
70487;SDS011;57976;48.174;16.370;2023-12-29T07:42:07;12.50;;;6.00;;
70487;SDS011;57976;48.174;16.370;2023-12-29T07:44:13;12.30;;;6.20;;
70487;SDS011;57976;48.174;16.370;2023-12-29T07:46:24;11.30;;;5.80;;
70487;SDS011;57976;48.174;16.370;2023-12-29T07:48:29;11.70;;;6.10;;
70487;SDS011;57976;48.174;16.370;2023-12-29T07:50:34;12.50;;;6.00;;
70487;SDS011;57976;48.174;16.370;2023-12-29T07:52:39;13.70;;;6.60;;
70487;SDS011;57976;48.174;16.370;2023-12-29T07:54:45;13.10;;;5.90;;
70487;SDS011;57976;48.174;16.370;2023-12-29T07:56:49;11.70;;;5.60;;
70487;SDS011;57976;48.174;16.370;2023-12-29T07:58:54;12.10;;;6.20;;
70487;SDS011;57976;48.174;16.370;2023-12-29T08:00:59;11.30;;;5.80;;
70487;SDS011;57976;48.174;16.370;2023-12-29T08:03:05;12.10;;;5.80;;
70487;SDS011;57976;48.174;16.370;2023-12-29T08:05:11;11.50;;;5.70;;
70487;SDS011;57976;48.174;16.370;2023-12-29T08:07:16;12.20;;;6.20;;
70487;SDS011;57976;48.174;16.370;2023-12-29T08:09:20;11.30;;;5.80;;
70487;SDS011;57976;48.174;16.370;2023-12-29T08:11:25;11.60;;;6.20;;
70487;SDS011;57976;48.174;16.370;2023-12-29T08:13:30;12.70;;;5.90;;
70487;SDS011;57976;48.174;16.370;2023-12-29T08:15:34;13.70;;;6.50;;
70487;SDS011;57976;48.174;16.370;2023-12-29T08:17:39;14.10;;;6.30;;
70487;SDS011;57976;48.174;16.370;2023-12-29T08:19:44;12.10;;;6.10;;
70487;SDS011;57976;48.174;16.370;2023-12-29T08:21:50;15.60;;;7.10;;
70487;SDS011;57976;48.174;16.370;2023-12-29T08:23:55;14.80;;;6.80;;
70487;SDS011;57976;48.174;16.370;2023-12-29T08:26:02;11.60;;;6.10;;
70487;SDS011;57976;48.174;16.370;2023-12-29T08:28:07;11.50;;;5.50;;
70487;SDS011;57976;48.174;16.370;2023-12-29T08:30:12;10.20;;;4.80;;
70487;SDS011;57976;48.174;16.370;2023-12-29T08:32:17;11.10;;;5.30;;
70487;SDS011;57976;48.174;16.370;2023-12-29T08:34:22;10.90;;;5.20;;
70487;SDS011;57976;48.174;16.370;2023-12-29T08:36:30;10.80;;;5.40;;
70487;SDS011;57976;48.174;16.370;2023-12-29T08:38:34;12.20;;;5.90;;
70487;SDS011;57976;48.174;16.370;2023-12-29T08:40:39;11.30;;;5.80;;
70487;SDS011;57976;48.174;16.370;2023-12-29T08:42:44;11.50;;;5.50;;
70487;SDS011;57976;48.174;16.370;2023-12-29T08:44:49;11.50;;;5.80;;
70487;SDS011;57976;48.174;16.370;2023-12-29T08:46:54;11.30;;;5.70;;
70487;SDS011;57976;48.174;16.370;2023-12-29T08:48:58;13.20;;;6.40;;
70487;SDS011;57976;48.174;16.370;2023-12-29T08:51:04;13.00;;;6.20;;
70487;SDS011;57976;48.174;16.370;2023-12-29T08:53:09;11.70;;;5.90;;
70487;SDS011;57976;48.174;16.370;2023-12-29T08:55:14;12.00;;;5.50;;
70487;SDS011;57976;48.174;16.370;2023-12-29T08:57:19;11.00;;;5.40;;
70487;SDS011;57976;48.174;16.370;2023-12-29T08:59:23;12.00;;;5.50;;
70487;SDS011;57976;48.174;16.370;2023-12-29T09:01:31;11.20;;;5.40;;
70487;SDS011;57976;48.174;16.370;2023-12-29T09:03:36;11.80;;;5.90;;
70487;SDS011;57976;48.174;16.370;2023-12-29T09:05:41;12.00;;;6.20;;
70487;SDS011;57976;48.174;16.370;2023-12-29T09:07:45;14.90;;;5.30;;
70487;SDS011;57976;48.174;16.370;2023-12-29T09:09:50;9.50;;;4.90;;
70487;SDS011;57976;48.174;16.370;2023-12-29T09:11:55;9.30;;;4.50;;
70487;SDS011;57976;48.174;16.370;2023-12-29T09:14:00;10.20;;;5.10;;
70487;SDS011;57976;48.174;16.370;2023-12-29T09:16:05;10.90;;;4.90;;
70487;SDS011;57976;48.174;16.370;2023-12-29T09:18:10;9.90;;;5.10;;
70487;SDS011;57976;48.174;16.370;2023-12-29T09:20:16;9.90;;;4.40;;
70487;SDS011;57976;48.174;16.370;2023-12-29T09:22:21;9.60;;;4.50;;
70487;SDS011;57976;48.174;16.370;2023-12-29T09:24:26;9.20;;;4.70;;
70487;SDS011;57976;48.174;16.370;2023-12-29T09:26:33;10.40;;;4.90;;
70487;SDS011;57976;48.174;16.370;2023-12-29T09:28:41;10.40;;;5.00;;
70487;SDS011;57976;48.174;16.370;2023-12-29T09:30:46;10.10;;;4.80;;
70487;SDS011;57976;48.174;16.370;2023-12-29T09:32:51;12.10;;;4.20;;
70487;SDS011;57976;48.174;16.370;2023-12-29T09:34:56;10.70;;;4.80;;
70487;SDS011;57976;48.174;16.370;2023-12-29T09:37:01;8.90;;;4.50;;
70487;SDS011;57976;48.174;16.370;2023-12-29T09:39:07;9.00;;;4.40;;
70487;SDS011;57976;48.174;16.370;2023-12-29T09:41:13;9.00;;;4.50;;
70487;SDS011;57976;48.174;16.370;2023-12-29T09:43:20;9.40;;;4.50;;
70487;SDS011;57976;48.174;16.370;2023-12-29T09:45:25;9.30;;;4.40;;
70487;SDS011;57976;48.174;16.370;2023-12-29T09:47:31;11.60;;;4.60;;
70487;SDS011;57976;48.174;16.370;2023-12-29T09:49:41;9.50;;;4.80;;
70487;SDS011;57976;48.174;16.370;2023-12-29T09:51:46;15.70;;;6.60;;
70487;SDS011;57976;48.174;16.370;2023-12-29T09:53:52;14.50;;;6.80;;
70487;SDS011;57976;48.174;16.370;2023-12-29T09:55:56;23.60;;;12.70;;
70487;SDS011;57976;48.174;16.370;2023-12-29T09:58:02;13.60;;;7.00;;
70487;SDS011;57976;48.174;16.370;2023-12-29T10:00:10;14.10;;;6.90;;
70487;SDS011;57976;48.174;16.370;2023-12-29T10:02:18;12.90;;;7.10;;
70487;SDS011;57976;48.174;16.370;2023-12-29T10:04:24;13.10;;;6.80;;
70487;SDS011;57976;48.174;16.370;2023-12-29T10:06:29;13.80;;;7.50;;
70487;SDS011;57976;48.174;16.370;2023-12-29T10:08:39;14.80;;;8.10;;
70487;SDS011;57976;48.174;16.370;2023-12-29T10:10:48;15.20;;;7.20;;
70487;SDS011;57976;48.174;16.370;2023-12-29T10:12:53;13.50;;;7.10;;
70487;SDS011;57976;48.174;16.370;2023-12-29T10:15:03;13.20;;;6.80;;
70487;SDS011;57976;48.174;16.370;2023-12-29T10:17:15;11.80;;;5.90;;
70487;SDS011;57976;48.174;16.370;2023-12-29T10:19:33;12.80;;;6.40;;
70487;SDS011;57976;48.174;16.370;2023-12-29T10:21:44;12.10;;;5.80;;
70487;SDS011;57976;48.174;16.370;2023-12-29T10:23:56;11.10;;;5.60;;
70487;SDS011;57976;48.174;16.370;2023-12-29T10:26:08;10.50;;;5.30;;
70487;SDS011;57976;48.174;16.370;2023-12-29T10:28:14;12.20;;;5.70;;
70487;SDS011;57976;48.174;16.370;2023-12-29T10:30:20;12.10;;;6.90;;
70487;SDS011;57976;48.174;16.370;2023-12-29T10:32:36;13.00;;;5.70;;
70487;SDS011;57976;48.174;16.370;2023-12-29T10:34:41;8.50;;;3.80;;
70487;SDS011;57976;48.174;16.370;2023-12-29T10:36:48;8.50;;;3.70;;
70487;SDS011;57976;48.174;16.370;2023-12-29T10:39:05;8.30;;;3.60;;
70487;SDS011;57976;48.174;16.370;2023-12-29T10:41:13;7.30;;;2.80;;
70487;SDS011;57976;48.174;16.370;2023-12-29T10:43:23;15.20;;;7.10;;
70487;SDS011;57976;48.174;16.370;2023-12-29T10:45:27;11.30;;;4.30;;
70487;SDS011;57976;48.174;16.370;2023-12-29T10:47:32;7.10;;;3.20;;
70487;SDS011;57976;48.174;16.370;2023-12-29T10:49:37;10.20;;;3.70;;
70487;SDS011;57976;48.174;16.370;2023-12-29T10:51:43;12.00;;;6.00;;
70487;SDS011;57976;48.174;16.370;2023-12-29T10:53:54;9.80;;;4.90;;
70487;SDS011;57976;48.174;16.370;2023-12-29T10:55:59;8.10;;;3.50;;
70487;SDS011;57976;48.174;16.370;2023-12-29T10:58:03;8.40;;;3.10;;
70487;SDS011;57976;48.174;16.370;2023-12-29T11:00:10;9.00;;;3.40;;
70487;SDS011;57976;48.174;16.370;2023-12-29T11:02:16;8.80;;;3.10;;
70487;SDS011;57976;48.174;16.370;2023-12-29T11:04:22;7.70;;;3.00;;
70487;SDS011;57976;48.174;16.370;2023-12-29T11:06:27;6.00;;;2.50;;
70487;SDS011;57976;48.174;16.370;2023-12-29T11:08:42;5.60;;;2.30;;
70487;SDS011;57976;48.174;16.370;2023-12-29T11:10:47;6.80;;;2.00;;
70487;SDS011;57976;48.174;16.370;2023-12-29T11:12:52;5.60;;;2.10;;
70487;SDS011;57976;48.174;16.370;2023-12-29T11:14:58;4.90;;;1.60;;
70487;SDS011;57976;48.174;16.370;2023-12-29T11:17:04;3.90;;;1.10;;
70487;SDS011;57976;48.174;16.370;2023-12-29T11:19:11;3.20;;;0.80;;
70487;SDS011;57976;48.174;16.370;2023-12-29T11:21:18;3.90;;;1.00;;
70487;SDS011;57976;48.174;16.370;2023-12-29T11:23:24;3.00;;;0.90;;
70487;SDS011;57976;48.174;16.370;2023-12-29T11:25:29;3.40;;;0.90;;
70487;SDS011;57976;48.174;16.370;2023-12-29T11:27:34;3.60;;;0.80;;
70487;SDS011;57976;48.174;16.370;2023-12-29T11:29:42;2.80;;;0.70;;
70487;SDS011;57976;48.174;16.370;2023-12-29T11:31:48;3.70;;;1.00;;
70487;SDS011;57976;48.174;16.370;2023-12-29T11:33:56;4.00;;;1.10;;
70487;SDS011;57976;48.174;16.370;2023-12-29T11:36:08;4.00;;;1.10;;
70487;SDS011;57976;48.174;16.370;2023-12-29T11:38:38;4.20;;;1.00;;
70487;SDS011;57976;48.174;16.370;2023-12-29T11:40:52;5.60;;;1.10;;
70487;SDS011;57976;48.174;16.370;2023-12-29T11:43:05;3.00;;;1.00;;
70487;SDS011;57976;48.174;16.370;2023-12-29T11:45:26;3.50;;;0.90;;
70487;SDS011;57976;48.174;16.370;2023-12-29T11:47:36;2.80;;;0.90;;
70487;SDS011;57976;48.174;16.370;2023-12-29T11:52:32;3.00;;;0.90;;
70487;SDS011;57976;48.174;16.370;2023-12-29T11:54:37;4.80;;;0.80;;
70487;SDS011;57976;48.174;16.370;2023-12-29T11:56:43;3.50;;;1.00;;
70487;SDS011;57976;48.174;16.370;2023-12-29T11:58:48;3.60;;;1.10;;
70487;SDS011;57976;48.174;16.370;2023-12-29T12:00:53;3.00;;;0.90;;
70487;SDS011;57976;48.174;16.370;2023-12-29T12:02:59;2.90;;;0.90;;
70487;SDS011;57976;48.174;16.370;2023-12-29T12:05:04;4.10;;;1.00;;
70487;SDS011;57976;48.174;16.370;2023-12-29T12:07:15;3.40;;;0.90;;
70487;SDS011;57976;48.174;16.370;2023-12-29T12:09:40;4.30;;;1.00;;
70487;SDS011;57976;48.174;16.370;2023-12-29T12:11:45;2.80;;;0.90;;
70487;SDS011;57976;48.174;16.370;2023-12-29T12:13:53;3.50;;;1.10;;
70487;SDS011;57976;48.174;16.370;2023-12-29T12:15:58;3.60;;;1.00;;
70487;SDS011;57976;48.174;16.370;2023-12-29T12:18:04;3.40;;;1.10;;
70487;SDS011;57976;48.174;16.370;2023-12-29T12:20:09;4.20;;;1.40;;
70487;SDS011;57976;48.174;16.370;2023-12-29T12:22:15;3.80;;;1.20;;
70487;SDS011;57976;48.174;16.370;2023-12-29T12:24:24;3.90;;;1.10;;
70487;SDS011;57976;48.174;16.370;2023-12-29T12:26:31;3.50;;;1.10;;